Time,TemperatureF,DewpointF,PressureIn,WindDirection,WindDirectionDegrees,WindSpeedMPH,WindSpeedGustMPH,Humidity,HourlyPrecipIn,Conditions,Clouds,dailyrainin,SolarRadiationWatts/m^2,SoftwareType,DateUTC
2013-06-02 00:01:00,57.0,46.0,-100.00,North,351,2.0,6.0,66,-99.99,,,0.00,0.000000,,2013-06-02 07:01:00,
2013-06-02 00:11:00,57.0,46.0,-100.00,North,351,2.0,6.0,66,-99.99,,,0.00,0.000000,,2013-06-02 07:11:00,
2013-06-02 00:31:00,54.0,45.0,-100.00,WSW,251,0.0,3.0,70,-99.99,,,0.00,0.000000,,2013-06-02 07:31:00,
2013-06-02 00:42:00,54.0,45.0,-100.00,WSW,251,0.0,3.0,70,-99.99,,,0.00,0.000000,,2013-06-02 07:42:00,
2013-06-02 00:52:00,54.0,45.0,-100.00,WSW,251,0.0,3.0,70,-99.99,,,0.00,0.000000,,2013-06-02 07:52:00,
2013-06-02 01:01:00,54.0,45.0,-100.00,WSW,251,0.0,3.0,70,-99.99,,,0.00,0.000000,,2013-06-02 08:01:00,
2013-06-02 01:11:00,54.0,45.0,-100.00,WSW,251,0.0,3.0,70,-99.99,,,0.00,0.000000,,2013-06-02 08:11:00,
2013-06-02 01:31:00,50.0,44.0,-100.00,SSW,213,1.0,2.0,77,-99.99,,,0.00,0.000000,,2013-06-02 08:31:00,
2013-06-02 01:41:00,50.0,44.0,-100.00,SSW,213,1.0,2.0,77,-99.99,,,0.00,0.000000,,2013-06-02 08:41:00,
2013-06-02 01:52:00,50.0,44.0,-100.00,SSW,213,1.0,2.0,77,-99.99,,,0.00,0.000000,,2013-06-02 08:52:00,
2013-06-02 02:01:00,50.0,44.0,-100.00,SSW,213,1.0,2.0,77,-99.99,,,0.00,0.000000,,2013-06-02 09:01:00,
2013-06-02 02:11:00,50.0,44.0,-100.00,SSW,213,1.0,2.0,77,-99.99,,,0.00,0.000000,,2013-06-02 09:11:00,
2013-06-02 02:33:00,48.0,42.0,-100.00,SW,221,1.0,2.0,81,-99.99,,,0.00,0.000000,,2013-06-02 09:33:00,
2013-06-02 02:42:00,48.0,42.0,-100.00,SW,221,1.0,2.0,81,-99.99,,,0.00,0.000000,,2013-06-02 09:42:00,
2013-06-02 02:53:00,48.0,42.0,-100.00,SW,221,1.0,2.0,81,-99.99,,,0.00,0.000000,,2013-06-02 09:53:00,
2013-06-02 03:02:00,48.0,42.0,-100.00,SW,221,1.0,2.0,81,-99.99,,,0.00,0.000000,,2013-06-02 10:02:00,
2013-06-02 03:12:00,48.0,42.0,-100.00,SW,221,1.0,2.0,81,-99.99,,,0.00,0.000000,,2013-06-02 10:12:00,
2013-06-02 03:32:00,46.0,41.0,-100.00,SW,222,0.0,1.0,82,-99.99,,,0.00,0.000000,,2013-06-02 10:32:00,
2013-06-02 03:42:00,46.0,41.0,-100.00,SW,222,0.0,1.0,82,-99.99,,,0.00,0.000000,,2013-06-02 10:42:00,
2013-06-02 03:52:00,46.0,41.0,-100.00,SW,222,0.0,1.0,82,-99.99,,,0.00,0.000000,,2013-06-02 10:52:00,
2013-06-02 04:02:00,46.0,41.0,-100.00,SW,222,0.0,1.0,82,-99.99,,,0.00,0.000000,,2013-06-02 11:02:00,
2013-06-02 04:11:00,46.0,41.0,-100.00,SW,222,0.0,1.0,82,-99.99,,,0.00,0.000000,,2013-06-02 11:11:00,
2013-06-02 04:32:00,44.0,40.0,-100.00,WSW,238,1.0,2.0,85,-99.99,,,0.00,0.000000,,2013-06-02 11:32:00,
2013-06-02 04:42:00,44.0,40.0,-100.00,WSW,238,1.0,2.0,85,-99.99,,,0.00,0.000000,,2013-06-02 11:42:00,
2013-06-02 04:52:00,44.0,40.0,-100.00,WSW,238,1.0,2.0,85,-99.99,,,0.00,0.000000,,2013-06-02 11:52:00,
2013-06-02 05:01:00,44.0,40.0,-100.00,WSW,238,1.0,2.0,85,-99.99,,,0.00,0.000000,,2013-06-02 12:01:00,
2013-06-02 05:11:00,44.0,40.0,-100.00,WSW,238,1.0,2.0,85,-99.99,,,0.00,0.000000,,2013-06-02 12:11:00,
2013-06-02 05:31:00,43.0,39.0,-100.00,SW,231,1.0,2.0,87,-99.99,,,0.00,0.580000,,2013-06-02 12:31:00,
2013-06-02 05:42:00,43.0,39.0,-100.00,SW,231,1.0,2.0,87,-99.99,,,0.00,0.580000,,2013-06-02 12:42:00,
2013-06-02 05:52:00,43.0,39.0,-100.00,SW,231,1.0,2.0,87,-99.99,,,0.00,0.580000,,2013-06-02 12:52:00,
2013-06-02 06:01:00,43.0,39.0,-100.00,SW,231,1.0,2.0,87,-99.99,,,0.00,0.580000,,2013-06-02 13:01:00,
2013-06-02 06:11:00,43.0,39.0,-100.00,SW,231,1.0,2.0,87,-99.99,,,0.00,0.580000,,2013-06-02 13:11:00,
2013-06-02 06:41:00,44.0,40.0,-100.00,SW,222,0.0,2.0,87,-99.99,,,0.00,23.360001,,2013-06-02 13:41:00,
2013-06-02 06:52:00,44.0,40.0,-100.00,SW,222,0.0,2.0,87,-99.99,,,0.00,23.360001,,2013-06-02 13:52:00,
2013-06-02 07:01:00,44.0,40.0,-100.00,SW,222,0.0,2.0,87,-99.99,,,0.00,23.360001,,2013-06-02 14:01:00,
2013-06-02 07:11:00,44.0,40.0,-100.00,SW,222,0.0,2.0,87,-99.99,,,0.00,23.360001,,2013-06-02 14:11:00,
2013-06-02 07:32:00,48.0,42.0,-100.00,West,281,0.0,2.0,78,-99.99,,,0.00,105.529999,,2013-06-02 14:32:00,
2013-06-02 07:41:00,48.0,42.0,-100.00,West,281,0.0,2.0,78,-99.99,,,0.00,105.529999,,2013-06-02 14:41:00,
2013-06-02 07:52:00,48.0,42.0,-100.00,West,281,0.0,2.0,78,-99.99,,,0.00,105.529999,,2013-06-02 14:52:00,
2013-06-02 08:01:00,48.0,42.0,-100.00,West,281,0.0,2.0,78,-99.99,,,0.00,105.529999,,2013-06-02 15:01:00,
2013-06-02 08:11:00,48.0,42.0,-100.00,West,281,0.0,2.0,78,-99.99,,,0.00,105.529999,,2013-06-02 15:11:00,
2013-06-02 08:32:00,56.0,45.0,-100.00,ENE,60,1.0,4.0,65,-99.99,,,0.00,440.820007,,2013-06-02 15:32:00,
2013-06-02 08:43:00,56.0,45.0,-100.00,ENE,60,1.0,4.0,65,-99.99,,,0.00,440.820007,,2013-06-02 15:43:00,
2013-06-02 08:53:00,56.0,45.0,-100.00,ENE,60,1.0,4.0,65,-99.99,,,0.00,440.820007,,2013-06-02 15:53:00,
2013-06-02 09:03:00,56.0,45.0,-100.00,ENE,60,1.0,4.0,65,-99.99,,,0.00,440.820007,,2013-06-02 16:03:00,
2013-06-02 09:13:00,56.0,45.0,-100.00,ENE,60,1.0,4.0,65,-99.99,,,0.00,440.820007,,2013-06-02 16:13:00,
2013-06-02 09:33:00,60.0,43.0,-100.00,NW,323,2.0,6.0,54,-99.99,,,-99.99,619.799988,,2013-06-02 16:33:00,
2013-06-02 09:42:00,60.0,43.0,-100.00,NW,323,2.0,6.0,54,-99.99,,,-99.99,619.799988,,2013-06-02 16:42:00,
2013-06-02 09:52:00,60.0,43.0,-100.00,NW,323,2.0,6.0,54,-99.99,,,-99.99,619.799988,,2013-06-02 16:52:00,
2013-06-02 10:02:00,60.0,43.0,-100.00,NW,323,2.0,6.0,54,-99.99,,,-99.99,619.799988,,2013-06-02 17:02:00,
2013-06-02 10:12:00,60.0,43.0,-100.00,NW,323,2.0,6.0,54,-99.99,,,-99.99,619.799988,,2013-06-02 17:12:00,
2013-06-02 10:32:00,62.0,39.0,-100.00,NNW,336,2.0,6.0,43,-99.99,,,0.00,804.710022,,2013-06-02 17:32:00,
2013-06-02 10:42:00,62.0,39.0,-100.00,NNW,336,2.0,6.0,43,-99.99,,,0.00,804.710022,,2013-06-02 17:42:00,
2013-06-02 10:52:00,62.0,39.0,-100.00,NNW,336,2.0,6.0,43,-99.99,,,0.00,804.710022,,2013-06-02 17:52:00,
2013-06-02 11:01:00,62.0,39.0,-100.00,NNW,336,2.0,6.0,43,-99.99,,,0.00,804.710022,,2013-06-02 18:01:00,
2013-06-02 11:11:00,62.0,39.0,-100.00,NNW,336,2.0,6.0,43,-99.99,,,0.00,804.710022,,2013-06-02 18:11:00,
2013-06-02 11:42:00,62.0,38.0,-100.00,NNW,340,3.0,12.0,40,-99.99,,,0.00,906.520020,,2013-06-02 18:42:00,
2013-06-02 11:52:00,62.0,38.0,-100.00,NNW,340,3.0,12.0,40,-99.99,,,0.00,906.520020,,2013-06-02 18:52:00,
2013-06-02 12:01:00,62.0,38.0,-100.00,NNW,340,3.0,12.0,40,-99.99,,,0.00,906.520020,,2013-06-02 19:01:00,
2013-06-02 12:11:00,62.0,38.0,-100.00,NNW,340,3.0,12.0,40,-99.99,,,0.00,906.520020,,2013-06-02 19:11:00,
2013-06-02 12:32:00,64.0,38.0,-100.00,NNW,346,3.0,9.0,38,-99.99,,,0.00,857.700012,,2013-06-02 19:32:00,
2013-06-02 12:42:00,64.0,38.0,-100.00,NNW,346,3.0,9.0,38,-99.99,,,0.00,857.700012,,2013-06-02 19:42:00,
2013-06-02 12:52:00,64.0,38.0,-100.00,NNW,346,3.0,9.0,38,-99.99,,,0.00,857.700012,,2013-06-02 19:52:00,
2013-06-02 13:02:00,64.0,38.0,-100.00,NNW,346,3.0,9.0,38,-99.99,,,0.00,857.700012,,2013-06-02 20:02:00,
2013-06-02 13:11:00,64.0,38.0,-100.00,NNW,346,3.0,9.0,38,-99.99,,,0.00,857.700012,,2013-06-02 20:11:00,
2013-06-02 13:32:00,66.0,38.0,-100.00,NNW,335,3.0,10.0,35,-99.99,,,0.00,1008.789978,,2013-06-02 20:32:00,
2013-06-02 13:42:00,66.0,38.0,-100.00,NNW,335,3.0,10.0,35,-99.99,,,0.00,1008.789978,,2013-06-02 20:42:00,
2013-06-02 13:52:00,66.0,38.0,-100.00,NNW,335,3.0,10.0,35,-99.99,,,0.00,1008.789978,,2013-06-02 20:52:00,
2013-06-02 14:01:00,66.0,38.0,-100.00,NNW,335,3.0,10.0,35,-99.99,,,0.00,1008.789978,,2013-06-02 21:01:00,
2013-06-02 14:11:00,66.0,38.0,-100.00,NNW,335,3.0,10.0,35,-99.99,,,0.00,1008.789978,,2013-06-02 21:11:00,
2013-06-02 14:33:00,68.0,37.0,-100.00,North,350,3.0,12.0,32,-99.99,,,0.00,905.349976,,2013-06-02 21:33:00,
2013-06-02 14:42:00,68.0,37.0,-100.00,North,350,3.0,12.0,32,-99.99,,,0.00,905.349976,,2013-06-02 21:42:00,
2013-06-02 14:53:00,68.0,37.0,-100.00,North,350,3.0,12.0,32,-99.99,,,0.00,905.349976,,2013-06-02 21:53:00,
2013-06-02 15:03:00,68.0,37.0,-100.00,North,350,3.0,12.0,32,-99.99,,,0.00,905.349976,,2013-06-02 22:03:00,
2013-06-02 15:12:00,68.0,37.0,-100.00,North,350,3.0,12.0,32,-99.99,,,0.00,905.349976,,2013-06-02 22:12:00,
2013-06-02 15:33:00,70.0,35.0,-100.00,NNW,336,4.0,14.0,27,-99.99,,,0.00,900.710022,,2013-06-02 22:33:00,
2013-06-02 15:42:00,70.0,35.0,-100.00,NNW,336,4.0,14.0,27,-99.99,,,0.00,900.710022,,2013-06-02 22:42:00,
2013-06-02 15:52:00,70.0,35.0,-100.00,NNW,336,4.0,14.0,27,-99.99,,,0.00,900.710022,,2013-06-02 22:52:00,
2013-06-02 16:02:00,70.0,35.0,-100.00,NNW,336,4.0,14.0,27,-99.99,,,0.00,900.710022,,2013-06-02 23:02:00,
2013-06-02 16:12:00,70.0,35.0,-100.00,NNW,336,4.0,14.0,27,-99.99,,,0.00,900.710022,,2013-06-02 23:12:00,
2013-06-02 16:32:00,71.0,31.0,-100.00,NW,321,4.0,13.0,22,-99.99,,,0.00,775.299988,,2013-06-02 23:32:00,
2013-06-02 16:42:00,71.0,31.0,-100.00,NW,321,4.0,13.0,22,-99.99,,,0.00,775.299988,,2013-06-02 23:42:00,
2013-06-02 16:52:00,71.0,31.0,-100.00,NW,321,4.0,13.0,22,-99.99,,,0.00,775.299988,,2013-06-02 23:52:00,
2013-06-02 17:01:00,71.0,31.0,-100.00,NW,321,4.0,13.0,22,-99.99,,,0.00,775.299988,,2013-06-03 00:01:00,
2013-06-02 17:11:00,71.0,31.0,-100.00,NW,321,4.0,13.0,22,-99.99,,,0.00,775.299988,,2013-06-03 00:11:00,
2013-06-02 18:32:00,68.0,29.0,-100.00,NNW,328,4.0,13.0,22,-99.99,,,0.00,417.350006,,2013-06-03 01:32:00,
2013-06-02 18:42:00,68.0,29.0,-100.00,NNW,328,4.0,13.0,22,-99.99,,,0.00,417.350006,,2013-06-03 01:42:00,
2013-06-02 18:52:00,68.0,29.0,-100.00,NNW,328,4.0,13.0,22,-99.99,,,0.00,417.350006,,2013-06-03 01:52:00,
2013-06-02 19:02:00,68.0,29.0,-100.00,NNW,328,4.0,13.0,22,-99.99,,,0.00,417.350006,,2013-06-03 02:02:00,
2013-06-02 19:12:00,68.0,29.0,-100.00,NNW,328,4.0,13.0,22,-99.99,,,0.00,417.350006,,2013-06-03 02:12:00,
2013-06-02 19:32:00,64.0,39.0,-100.00,North,355,5.0,11.0,38,-99.99,,,0.00,31.150000,,2013-06-03 02:32:00,
2013-06-02 19:42:00,64.0,39.0,-100.00,North,355,5.0,11.0,38,-99.99,,,0.00,31.150000,,2013-06-03 02:42:00,
2013-06-02 19:52:00,64.0,39.0,-100.00,North,355,5.0,11.0,38,-99.99,,,0.00,31.150000,,2013-06-03 02:52:00,
2013-06-02 20:02:00,64.0,39.0,-100.00,North,355,5.0,11.0,38,-99.99,,,0.00,31.150000,,2013-06-03 03:02:00,
2013-06-02 20:12:00,64.0,39.0,-100.00,North,355,5.0,11.0,38,-99.99,,,0.00,31.150000,,2013-06-03 03:12:00,
2013-06-02 20:33:00,59.0,38.0,-100.00,North,3,5.0,13.0,44,-99.99,,,0.00,15.220000,,2013-06-03 03:33:00,
2013-06-02 20:43:00,59.0,38.0,-100.00,North,3,5.0,13.0,44,-99.99,,,0.00,15.220000,,2013-06-03 03:43:00,
2013-06-02 20:53:00,59.0,38.0,-100.00,North,3,5.0,13.0,44,-99.99,,,0.00,15.220000,,2013-06-03 03:53:00,
2013-06-02 21:03:00,59.0,38.0,-100.00,North,3,5.0,13.0,44,-99.99,,,0.00,15.220000,,2013-06-03 04:03:00,
2013-06-02 21:12:00,59.0,38.0,-100.00,North,3,5.0,13.0,44,-99.99,,,0.00,15.220000,,2013-06-03 04:12:00,
2013-06-02 21:33:00,55.0,37.0,-100.00,ENE,67,2.0,8.0,50,-99.99,,,0.00,0.230000,,2013-06-03 04:33:00,
2013-06-02 21:42:00,55.0,37.0,-100.00,ENE,67,2.0,8.0,50,-99.99,,,0.00,0.230000,,2013-06-03 04:42:00,
2013-06-02 21:53:00,55.0,37.0,-100.00,ENE,67,2.0,8.0,50,-99.99,,,0.00,0.230000,,2013-06-03 04:53:00,
2013-06-02 22:02:00,55.0,37.0,-100.00,ENE,67,2.0,8.0,50,-99.99,,,0.00,0.230000,,2013-06-03 05:02:00,
2013-06-02 22:32:00,54.0,37.0,-100.00,NE,55,1.0,3.0,52,-99.99,,,0.00,0.000000,,2013-06-03 05:32:00,
2013-06-02 22:42:00,54.0,37.0,-100.00,NE,55,1.0,3.0,52,-99.99,,,0.00,0.000000,,2013-06-03 05:42:00,
2013-06-02 22:52:00,54.0,37.0,-100.00,NE,55,1.0,3.0,52,-99.99,,,0.00,0.000000,,2013-06-03 05:52:00,
2013-06-02 23:02:00,54.0,37.0,-100.00,NE,55,1.0,3.0,52,-99.99,,,0.00,0.000000,,2013-06-03 06:02:00,
2013-06-02 23:12:00,54.0,37.0,-100.00,NE,55,1.0,3.0,52,-99.99,,,0.00,0.000000,,2013-06-03 06:12:00,
2013-06-02 23:32:00,51.0,37.0,-100.00,East,87,0.0,1.0,58,-99.99,,,0.00,0.000000,,2013-06-03 06:32:00,
2013-06-02 23:42:00,51.0,37.0,-100.00,East,87,0.0,1.0,58,-99.99,,,0.00,0.000000,,2013-06-03 06:42:00,
2013-06-02 23:52:00,51.0,37.0,-100.00,East,87,0.0,1.0,58,-99.99,,,0.00,0.000000,,2013-06-03 06:52:00,